sensor_id;sensor_type;location;lat;lon;timestamp;pressure;altitude;pressure_sealevel;temperature;humidity
56402;BME280;42299;35.160;26.100;2023-03-23T00:01:11;100808.56;;;12.96;100.00
56402;BME280;42299;35.160;26.100;2023-03-23T00:02:34;100802.38;;;12.94;100.00
56402;BME280;42299;35.160;26.100;2023-03-23T00:03:58;100805.91;;;12.94;100.00
56402;BME280;42299;35.160;26.100;2023-03-23T00:05:21;100802.38;;;12.95;100.00
56402;BME280;42299;35.160;26.100;2023-03-23T00:06:44;100804.13;;;12.93;100.00
56402;BME280;42299;35.160;26.100;2023-03-23T00:08:07;100802.38;;;12.92;100.00
56402;BME280;42299;35.160;26.100;2023-03-23T00:09:33;100800.59;;;12.91;100.00
56402;BME280;42299;35.160;26.100;2023-03-23T00:11:01;100804.09;;;12.89;100.00
56402;BME280;42299;35.160;26.100;2023-03-23T00:12:24;100804.09;;;12.87;100.00
56402;BME280;42299;35.160;26.100;2023-03-23T00:13:53;100795.25;;;12.84;100.00
56402;BME280;42299;35.160;26.100;2023-03-23T00:15:19;100801.41;;;12.83;100.00
56402;BME280;42299;35.160;26.100;2023-03-23T00:16:45;100797.88;;;12.84;100.00
56402;BME280;42299;35.160;26.100;2023-03-23T00:18:08;100797.88;;;12.84;100.00
56402;BME280;42299;35.160;26.100;2023-03-23T00:19:29;100801.41;;;12.83;100.00
56402;BME280;42299;35.160;26.100;2023-03-23T00:20:54;100794.38;;;12.85;100.00
56402;BME280;42299;35.160;26.100;2023-03-23T00:22:17;100797.03;;;12.88;100.00
56402;BME280;42299;35.160;26.100;2023-03-23T00:23:43;100794.38;;;12.88;100.00
56402;BME280;42299;35.160;26.100;2023-03-23T00:25:07;100798.81;;;12.89;100.00
56402;BME280;42299;35.160;26.100;2023-03-23T00:26:30;100794.38;;;12.89;100.00
56402;BME280;42299;35.160;26.100;2023-03-23T00:27:54;100794.41;;;12.91;100.00
56402;BME280;42299;35.160;26.100;2023-03-23T00:29:18;100794.41;;;12.91;100.00
56402;BME280;42299;35.160;26.100;2023-03-23T00:30:46;100794.41;;;12.91;100.00
56402;BME280;42299;35.160;26.100;2023-03-23T00:32:08;100796.16;;;12.90;100.00
56402;BME280;42299;35.160;26.100;2023-03-23T00:33:36;100801.50;;;12.95;100.00
56402;BME280;42299;35.160;26.100;2023-03-23T00:35:01;100802.38;;;12.94;100.00
56402;BME280;42299;35.160;26.100;2023-03-23T00:36:24;100796.22;;;12.96;100.00
56402;BME280;42299;35.160;26.100;2023-03-23T00:37:47;100794.44;;;12.97;100.00
56402;BME280;42299;35.160;26.100;2023-03-23T00:39:10;100792.69;;;12.99;100.00
56402;BME280;42299;35.160;26.100;2023-03-23T00:40:33;100794.47;;;13.03;100.00
56402;BME280;42299;35.160;26.100;2023-03-23T00:41:56;100796.25;;;13.04;100.00
56402;BME280;42299;35.160;26.100;2023-03-23T00:43:21;100793.59;;;13.02;100.00
56402;BME280;42299;35.160;26.100;2023-03-23T00:44:45;100792.69;;;13.02;100.00
56402;BME280;42299;35.160;26.100;2023-03-23T00:46:10;100790.94;;;13.01;100.00
56402;BME280;42299;35.160;26.100;2023-03-23T00:47:33;100800.66;;;12.99;100.00
56402;BME280;42299;35.160;26.100;2023-03-23T00:48:58;100796.19;;;12.92;100.00
56402;BME280;42299;35.160;26.100;2023-03-23T00:50:20;100798.81;;;12.89;100.00
56402;BME280;42299;35.160;26.100;2023-03-23T00:51:44;100791.72;;;12.85;100.00
56402;BME280;42299;35.160;26.100;2023-03-23T00:53:05;100793.47;;;12.83;100.00
56402;BME280;42299;35.160;26.100;2023-03-23T00:54:28;100788.19;;;12.84;100.00
56402;BME280;42299;35.160;26.100;2023-03-23T00:55:51;100795.28;;;12.90;100.00
56402;BME280;42299;35.160;26.100;2023-03-23T00:57:13;100798.88;;;12.98;100.00
56402;BME280;42299;35.160;26.100;2023-03-23T00:58:36;100798.88;;;13.01;100.00
56402;BME280;42299;35.160;26.100;2023-03-23T00:59:58;100794.47;;;13.01;100.00
56402;BME280;42299;35.160;26.100;2023-03-23T01:01:22;100794.47;;;13.01;100.00
56402;BME280;42299;35.160;26.100;2023-03-23T01:02:43;100795.34;;;12.97;100.00
56402;BME280;42299;35.160;26.100;2023-03-23T01:04:06;100804.16;;;12.96;100.00
56402;BME280;42299;35.160;26.100;2023-03-23T01:05:29;100802.38;;;12.95;100.00
56402;BME280;42299;35.160;26.100;2023-03-23T01:06:52;100799.72;;;12.94;100.00
56402;BME280;42299;35.160;26.100;2023-03-23T01:08:15;100804.13;;;12.93;100.00
56402;BME280;42299;35.160;26.100;2023-03-23T01:09:37;100793.53;;;12.95;100.00
56402;BME280;42299;35.160;26.100;2023-03-23T01:11:06;100797.13;;;12.98;100.00
56402;BME280;42299;35.160;26.100;2023-03-23T01:12:29;100797.13;;;13.03;100.00
56402;BME280;42299;35.160;26.100;2023-03-23T01:13:51;100790.97;;;13.07;100.00
56402;BME280;42299;35.160;26.100;2023-03-23T01:15:16;100789.22;;;13.09;100.00
56402;BME280;42299;35.160;26.100;2023-03-23T01:16:40;100788.38;;;13.13;100.00
56402;BME280;42299;35.160;26.100;2023-03-23T01:18:03;100790.13;;;13.11;100.00
56402;BME280;42299;35.160;26.100;2023-03-23T01:19:26;100787.47;;;13.11;100.00
56402;BME280;42299;35.160;26.100;2023-03-23T01:20:51;100789.22;;;13.09;100.00
56402;BME280;42299;35.160;26.100;2023-03-23T01:22:13;100786.56;;;13.06;100.00
56402;BME280;42299;35.160;26.100;2023-03-23T01:23:35;100787.41;;;12.99;100.00
56402;BME280;42299;35.160;26.100;2023-03-23T01:24:57;100787.34;;;12.94;100.00
56402;BME280;42299;35.160;26.100;2023-03-23T01:26:22;100782.06;;;12.93;100.00
56402;BME280;42299;35.160;26.100;2023-03-23T01:27:45;100792.66;;;12.93;100.00
56402;BME280;42299;35.160;26.100;2023-03-23T01:29:06;100791.78;;;12.92;100.00
56402;BME280;42299;35.160;26.100;2023-03-23T01:30:29;100789.16;;;12.97;100.00
56402;BME280;42299;35.160;26.100;2023-03-23T01:31:52;100797.13;;;13.03;100.00
56402;BME280;42299;35.160;26.100;2023-03-23T01:33:14;100792.75;;;13.09;100.00
56402;BME280;42299;35.160;26.100;2023-03-23T01:34:37;100801.69;;;13.18;100.00
56402;BME280;42299;35.160;26.100;2023-03-23T01:36:02;100796.38;;;13.22;100.00
56402;BME280;42299;35.160;26.100;2023-03-23T01:37:24;100798.16;;;13.23;100.00
56402;BME280;42299;35.160;26.100;2023-03-23T01:38:50;100792.88;;;13.26;100.00
56402;BME280;42299;35.160;26.100;2023-03-23T01:40:13;100795.56;;;13.31;100.00
56402;BME280;42299;35.160;26.100;2023-03-23T01:41:35;100788.50;;;13.36;100.00
56402;BME280;42299;35.160;26.100;2023-03-23T01:43:09;100785.91;;;13.43;100.00
56402;BME280;42299;35.160;26.100;2023-03-23T01:46:39;100800.97;;;13.52;100.00
56402;BME280;42299;35.160;26.100;2023-03-23T01:48:09;100803.63;;;13.52;100.00
56402;BME280;42299;35.160;26.100;2023-03-23T01:49:35;100795.63;;;13.49;100.00
56402;BME280;42299;35.160;26.100;2023-03-23T01:51:02;100800.94;;;13.49;100.00
56402;BME280;42299;35.160;26.100;2023-03-23T01:52:27;100798.28;;;13.49;100.00
56402;BME280;42299;35.160;26.100;2023-03-23T01:53:57;100799.16;;;13.48;100.00
56402;BME280;42299;35.160;26.100;2023-03-23T01:55:25;100800.06;;;13.48;100.00
56402;BME280;42299;35.160;26.100;2023-03-23T01:56:49;100801.81;;;13.48;100.00
56402;BME280;42299;35.160;26.100;2023-03-23T01:58:13;100800.06;;;13.48;100.00
56402;BME280;42299;35.160;26.100;2023-03-23T01:59:34;100799.19;;;13.49;100.00
56402;BME280;42299;35.160;26.100;2023-03-23T02:01:15;100805.34;;;13.47;100.00
56402;BME280;42299;35.160;26.100;2023-03-23T02:02:38;100794.75;;;13.45;100.00
56402;BME280;42299;35.160;26.100;2023-03-23T02:04:02;100796.50;;;13.43;100.00
56402;BME280;42299;35.160;26.100;2023-03-23T02:05:29;100802.66;;;13.38;100.00
56402;BME280;42299;35.160;26.100;2023-03-23T02:06:54;100792.91;;;13.29;100.00
56402;BME280;42299;35.160;26.100;2023-03-23T02:08:21;100791.97;;;13.23;100.00
56402;BME280;42299;35.160;26.100;2023-03-23T02:09:44;100804.34;;;13.19;100.00
56402;BME280;42299;35.160;26.100;2023-03-23T02:11:12;100792.84;;;13.17;100.00
56402;BME280;42299;35.160;26.100;2023-03-23T02:12:35;100794.59;;;13.16;100.00
56402;BME280;42299;35.160;26.100;2023-03-23T02:13:56;100798.16;;;13.19;100.00
56402;BME280;42299;35.160;26.100;2023-03-23T02:15:20;100797.25;;;13.21;100.00
56402;BME280;42299;35.160;26.100;2023-03-23T02:16:45;100800.84;;;13.25;100.00
56402;BME280;42299;35.160;26.100;2023-03-23T02:18:21;100800.84;;;13.29;100.00
56402;BME280;42299;35.160;26.100;2023-03-23T02:20:06;100799.09;;;13.34;100.00
56402;BME280;42299;35.160;26.100;2023-03-23T02:21:58;100800.88;;;13.40;100.00
56402;BME280;42299;35.160;26.100;2023-03-23T02:23:37;100792.97;;;13.47;100.00
56402;BME280;42299;35.160;26.100;2023-03-23T02:25:29;100797.41;;;13.53;100.00
56402;BME280;42299;35.160;26.100;2023-03-23T02:26:59;100792.13;;;13.54;100.00
56402;BME280;42299;35.160;26.100;2023-03-23T02:28:45;100793.94;;;13.59;100.00
56402;BME280;42299;35.160;26.100;2023-03-23T02:30:30;100802.78;;;13.65;100.00
56402;BME280;42299;35.160;26.100;2023-03-23T02:32:07;100798.38;;;13.70;100.00
56402;BME280;42299;35.160;26.100;2023-03-23T02:33:38;100796.59;;;13.72;100.00
56402;BME280;42299;35.160;26.100;2023-03-23T02:35:06;100796.63;;;13.77;100.00
56402;BME280;42299;35.160;26.100;2023-03-23T02:36:35;100791.31;;;13.81;100.00
56402;BME280;42299;35.160;26.100;2023-03-23T02:38:08;100799.31;;;13.87;100.00
56402;BME280;42299;35.160;26.100;2023-03-23T02:39:34;100803.75;;;13.94;100.00
56402;BME280;42299;35.160;26.100;2023-03-23T02:41:01;100806.41;;;14.01;100.00
56402;BME280;42299;35.160;26.100;2023-03-23T02:42:28;100807.31;;;14.07;100.00
56402;BME280;42299;35.160;26.100;2023-03-23T02:43:55;100802.03;;;14.10;100.00
56402;BME280;42299;35.160;26.100;2023-03-23T02:45:19;100813.50;;;14.12;100.00
56402;BME280;42299;35.160;26.100;2023-03-23T02:46:42;100808.22;;;14.14;100.00
56402;BME280;42299;35.160;26.100;2023-03-23T02:48:07;100807.31;;;14.19;100.00
56402;BME280;42299;35.160;26.100;2023-03-23T02:49:32;100809.13;;;14.23;100.00
56402;BME280;42299;35.160;26.100;2023-03-23T02:50:58;100800.25;;;14.26;100.00
56402;BME280;42299;35.160;26.100;2023-03-23T02:52:23;100809.13;;;14.29;100.00
56402;BME280;42299;35.160;26.100;2023-03-23T02:53:48;100811.78;;;14.32;100.00
56402;BME280;42299;35.160;26.100;2023-03-23T02:55:12;100809.13;;;14.34;100.00
56402;BME280;42299;35.160;26.100;2023-03-23T02:56:38;100810.91;;;14.33;100.00
56402;BME280;42299;35.160;26.100;2023-03-23T02:58:11;100815.31;;;14.31;100.00
56402;BME280;42299;35.160;26.100;2023-03-23T02:59:37;100813.56;;;14.30;100.00
56402;BME280;42299;35.160;26.100;2023-03-23T03:00:59;100810.91;;;14.30;100.00
56402;BME280;42299;35.160;26.100;2023-03-23T03:02:23;100812.66;;;14.33;100.00
56402;BME280;42299;35.160;26.100;2023-03-23T03:03:47;100821.50;;;14.33;100.00
56402;BME280;42299;35.160;26.100;2023-03-23T03:05:16;100808.25;;;14.30;100.00
56402;BME280;42299;35.160;26.100;2023-03-23T03:06:48;100810.03;;;14.30;100.00
56402;BME280;42299;35.160;26.100;2023-03-23T03:08:15;100804.69;;;14.28;100.00
56402;BME280;42299;35.160;26.100;2023-03-23T03:09:46;100812.66;;;14.25;100.00
56402;BME280;42299;35.160;26.100;2023-03-23T03:11:13;100810.00;;;14.24;100.00
56402;BME280;42299;35.160;26.100;2023-03-23T03:12:42;100819.72;;;14.26;100.00
56402;BME280;42299;35.160;26.100;2023-03-23T03:14:07;100817.97;;;14.27;100.00
56402;BME280;42299;35.160;26.100;2023-03-23T03:15:36;100821.53;;;14.29;100.00
56402;BME280;42299;35.160;26.100;2023-03-23T03:17:02;100816.19;;;14.32;100.00
56402;BME280;42299;35.160;26.100;2023-03-23T03:18:30;100817.97;;;14.34;100.00
56402;BME280;42299;35.160;26.100;2023-03-23T03:19:57;100813.59;;;14.40;100.00
56402;BME280;42299;35.160;26.100;2023-03-23T03:21:23;100811.81;;;14.42;100.00
56402;BME280;42299;35.160;26.100;2023-03-23T03:22:50;100821.56;;;14.43;100.00
56402;BME280;42299;35.160;26.100;2023-03-23T03:24:17;100818.88;;;14.44;100.00
56402;BME280;42299;35.160;26.100;2023-03-23T03:25:46;100820.66;;;14.45;100.00
56402;BME280;42299;35.160;26.100;2023-03-23T03:27:18;100814.50;;;14.43;100.00
56402;BME280;42299;35.160;26.100;2023-03-23T03:28:53;100821.56;;;14.43;100.00
56402;BME280;42299;35.160;26.100;2023-03-23T03:30:19;100818.03;;;14.44;100.00
56402;BME280;42299;35.160;26.100;2023-03-23T03:31:42;100815.34;;;14.45;100.00
56402;BME280;42299;35.160;26.100;2023-03-23T03:33:08;100824.22;;;14.47;100.00
56402;BME280;42299;35.160;26.100;2023-03-23T03:34:32;100820.69;;;14.48;100.00
56402;BME280;42299;35.160;26.100;2023-03-23T03:35:55;100811.81;;;14.46;100.00
56402;BME280;42299;35.160;26.100;2023-03-23T03:37:20;100811.81;;;14.42;100.00
56402;BME280;42299;35.160;26.100;2023-03-23T03:38:44;100810.06;;;14.41;100.00
56402;BME280;42299;35.160;26.100;2023-03-23T03:40:11;100811.81;;;14.42;100.00
56402;BME280;42299;35.160;26.100;2023-03-23T03:41:36;100812.72;;;14.44;100.00
56402;BME280;42299;35.160;26.100;2023-03-23T03:42:59;100808.28;;;14.47;100.00
56402;BME280;42299;35.160;26.100;2023-03-23T03:44:22;100806.50;;;14.51;100.00
56402;BME280;42299;35.160;26.100;2023-03-23T03:45:43;100822.47;;;14.55;100.00
56402;BME280;42299;35.160;26.100;2023-03-23T03:47:06;100822.44;;;14.58;100.00
56402;BME280;42299;35.160;26.100;2023-03-23T03:48:28;100821.56;;;14.61;100.00
56402;BME280;42299;35.160;26.100;2023-03-23T03:49:50;100827.75;;;14.64;100.00
56402;BME280;42299;35.160;26.100;2023-03-23T03:51:13;100826.00;;;14.66;100.00
56402;BME280;42299;35.160;26.100;2023-03-23T03:52:40;100826.00;;;14.69;100.00
56402;BME280;42299;35.160;26.100;2023-03-23T03:54:03;100831.31;;;14.71;100.00
56402;BME280;42299;35.160;26.100;2023-03-23T03:55:24;100833.09;;;14.73;100.00
56402;BME280;42299;35.160;26.100;2023-03-23T03:56:49;100825.13;;;14.73;100.00
56402;BME280;42299;35.160;26.100;2023-03-23T03:58:45;100827.78;;;14.73;100.00
56402;BME280;42299;35.160;26.100;2023-03-23T04:00:21;100826.88;;;14.74;100.00
56402;BME280;42299;35.160;26.100;2023-03-23T04:01:44;100828.63;;;14.77;100.00
56402;BME280;42299;35.160;26.100;2023-03-23T04:03:07;100832.19;;;14.81;100.00
56402;BME280;42299;35.160;26.100;2023-03-23T04:04:51;100825.13;;;14.83;100.00
56402;BME280;42299;35.160;26.100;2023-03-23T04:06:15;100829.53;;;14.87;100.00
56402;BME280;42299;35.160;26.100;2023-03-23T04:07:40;100831.28;;;14.91;100.00
56402;BME280;42299;35.160;26.100;2023-03-23T04:09:03;100844.59;;;14.95;100.00
56402;BME280;42299;35.160;26.100;2023-03-23T04:10:30;100842.81;;;14.99;100.00
56402;BME280;42299;35.160;26.100;2023-03-23T04:11:54;100849.03;;;15.02;100.00
56402;BME280;42299;35.160;26.100;2023-03-23T04:13:35;100852.56;;;15.07;100.00
56402;BME280;42299;35.160;26.100;2023-03-23T04:15:10;100852.53;;;15.10;100.00
56402;BME280;42299;35.160;26.100;2023-03-23T04:16:32;100854.31;;;15.13;100.00
56402;BME280;42299;35.160;26.100;2023-03-23T04:17:56;100855.19;;;15.16;100.00
56402;BME280;42299;35.160;26.100;2023-03-23T04:19:18;100861.38;;;15.19;100.00
56402;BME280;42299;35.160;26.100;2023-03-23T04:20:43;100862.28;;;15.22;100.00
56402;BME280;42299;35.160;26.100;2023-03-23T04:22:08;100860.50;;;15.26;100.00
56402;BME280;42299;35.160;26.100;2023-03-23T04:23:33;100860.50;;;15.29;100.00
56402;BME280;42299;35.160;26.100;2023-03-23T04:24:59;100862.25;;;15.30;100.00
56402;BME280;42299;35.160;26.100;2023-03-23T04:26:25;100864.03;;;15.32;100.00
56402;BME280;42299;35.160;26.100;2023-03-23T04:27:53;100865.78;;;15.32;100.00
56402;BME280;42299;35.160;26.100;2023-03-23T04:29:18;100872.00;;;15.34;100.00
56402;BME280;42299;35.160;26.100;2023-03-23T04:30:59;100869.34;;;15.35;100.00
56402;BME280;42299;35.160;26.100;2023-03-23T04:32:22;100876.44;;;15.35;100.00
56402;BME280;42299;35.160;26.100;2023-03-23T04:33:48;100872.00;;;15.35;100.00
56402;BME280;42299;35.160;26.100;2023-03-23T04:35:14;100871.97;;;15.37;100.00
56402;BME280;42299;35.160;26.100;2023-03-23T04:36:41;100864.00;;;15.37;100.00
56402;BME280;42299;35.160;26.100;2023-03-23T04:38:09;100872.00;;;15.38;100.00
56402;BME280;42299;35.160;26.100;2023-03-23T04:39:34;100879.09;;;15.39;100.00
56402;BME280;42299;35.160;26.100;2023-03-23T04:40:58;100879.97;;;15.40;100.00
56402;BME280;42299;35.160;26.100;2023-03-23T04:42:41;100872.00;;;15.38;100.00
56402;BME280;42299;35.160;26.100;2023-03-23T04:44:20;100875.53;;;15.37;100.00
56402;BME280;42299;35.160;26.100;2023-03-23T04:45:55;100872.00;;;15.40;100.00
56402;BME280;42299;35.160;26.100;2023-03-23T04:47:19;100872.88;;;15.40;100.00
56402;BME280;42299;35.160;26.100;2023-03-23T04:48:48;100866.69;;;15.41;100.00
56402;BME280;42299;35.160;26.100;2023-03-23T04:50:19;100867.53;;;15.43;100.00
56402;BME280;42299;35.160;26.100;2023-03-23T04:51:45;100862.22;;;15.45;100.00
56402;BME280;42299;35.160;26.100;2023-03-23T04:53:15;100858.66;;;15.44;100.00
56402;BME280;42299;35.160;26.100;2023-03-23T04:54:41;100862.22;;;15.48;100.00
56402;BME280;42299;35.160;26.100;2023-03-23T04:56:03;100852.47;;;15.48;100.00
56402;BME280;42299;35.160;26.100;2023-03-23T04:57:33;100860.41;;;15.50;100.00
56402;BME280;42299;35.160;26.100;2023-03-23T04:59:22;100850.69;;;15.49;100.00
56402;BME280;42299;35.160;26.100;2023-03-23T05:01:14;100861.34;;;15.49;100.00
56402;BME280;42299;35.160;26.100;2023-03-23T05:02:58;100857.75;;;15.51;100.00
56402;BME280;42299;35.160;26.100;2023-03-23T05:04:23;100858.69;;;15.53;100.00
56402;BME280;42299;35.160;26.100;2023-03-23T05:06:06;100865.75;;;15.56;100.00
56402;BME280;42299;35.160;26.100;2023-03-23T05:07:30;100865.75;;;15.58;100.00
56402;BME280;42299;35.160;26.100;2023-03-23T05:08:53;100860.44;;;15.61;100.00
56402;BME280;42299;35.160;26.100;2023-03-23T05:10:19;100858.63;;;15.64;100.00
56402;BME280;42299;35.160;26.100;2023-03-23T05:11:41;100870.19;;;15.65;100.00
56402;BME280;42299;35.160;26.100;2023-03-23T05:13:05;100869.28;;;15.67;100.00
56402;BME280;42299;35.160;26.100;2023-03-23T05:14:27;100862.16;;;15.69;100.00
56402;BME280;42299;35.160;26.100;2023-03-23T05:16:03;100866.59;;;15.72;100.00
56402;BME280;42299;35.160;26.100;2023-03-23T05:17:28;100857.72;;;15.74;100.00
56402;BME280;42299;35.160;26.100;2023-03-23T05:18:53;100861.25;;;15.76;100.00
56402;BME280;42299;35.160;26.100;2023-03-23T05:20:18;100870.13;;;15.78;100.00
56402;BME280;42299;35.160;26.100;2023-03-23T05:21:47;100869.22;;;15.82;100.00
56402;BME280;42299;35.160;26.100;2023-03-23T05:23:09;100855.00;;;15.85;100.00
56402;BME280;42299;35.160;26.100;2023-03-23T05:24:32;100862.13;;;15.87;100.00
56402;BME280;42299;35.160;26.100;2023-03-23T05:25:58;100863.84;;;15.91;100.00
56402;BME280;42299;35.160;26.100;2023-03-23T05:27:24;100863.88;;;15.94;100.00
56402;BME280;42299;35.160;26.100;2023-03-23T05:28:53;100863.81;;;15.98;100.00
56402;BME280;42299;35.160;26.100;2023-03-23T05:30:30;100855.81;;;16.02;100.00
56402;BME280;42299;35.160;26.100;2023-03-23T05:31:53;100863.78;;;16.07;100.00
56402;BME280;42299;35.160;26.100;2023-03-23T05:33:17;100860.22;;;16.09;100.00
56402;BME280;42299;35.160;26.100;2023-03-23T05:34:43;100854.88;;;16.11;100.00
56402;BME280;42299;35.160;26.100;2023-03-23T05:36:06;100858.44;;;16.13;100.00
56402;BME280;42299;35.160;26.100;2023-03-23T05:37:51;100853.09;;;16.13;100.00
56402;BME280;42299;35.160;26.100;2023-03-23T05:39:16;100856.63;;;16.15;100.00
56402;BME280;42299;35.160;26.100;2023-03-23T05:41:00;100859.28;;;16.15;100.00
56402;BME280;42299;35.160;26.100;2023-03-23T05:42:32;100858.41;;;16.16;100.00
56402;BME280;42299;35.160;26.100;2023-03-23T05:44:05;100853.97;;;16.18;100.00
56402;BME280;42299;35.160;26.100;2023-03-23T05:45:39;100859.25;;;16.22;100.00
56402;BME280;42299;35.160;26.100;2023-03-23T05:47:03;100862.78;;;16.26;100.00
56402;BME280;42299;35.160;26.100;2023-03-23T05:48:26;100864.53;;;16.28;100.00
56402;BME280;42299;35.160;26.100;2023-03-23T05:49:48;100860.09;;;16.30;100.00
56402;BME280;42299;35.160;26.100;2023-03-23T05:51:13;100866.31;;;16.32;100.00
56402;BME280;42299;35.160;26.100;2023-03-23T05:52:38;100862.72;;;16.37;100.00
56402;BME280;42299;35.160;26.100;2023-03-23T05:54:04;100860.94;;;16.40;100.00
56402;BME280;42299;35.160;26.100;2023-03-23T05:55:28;100864.44;;;16.44;100.00
56402;BME280;42299;35.160;26.100;2023-03-23T05:57:02;100861.78;;;16.47;100.00
56402;BME280;42299;35.160;26.100;2023-03-23T05:58:38;100867.09;;;16.47;100.00
56402;BME280;42299;35.160;26.100;2023-03-23T06:00:01;100866.19;;;16.48;100.00
56402;BME280;42299;35.160;26.100;2023-03-23T06:01:37;100870.63;;;16.52;100.00
56402;BME280;42299;35.160;26.100;2023-03-23T06:02:59;100867.91;;;16.55;100.00
56402;BME280;42299;35.160;26.100;2023-03-23T06:04:44;100870.63;;;16.52;100.00
56402;BME280;42299;35.160;26.100;2023-03-23T06:06:19;100871.50;;;16.52;100.00
56402;BME280;42299;35.160;26.100;2023-03-23T06:07:58;100878.63;;;16.52;100.00
56402;BME280;42299;35.160;26.100;2023-03-23T06:09:23;100878.56;;;16.55;100.00
56402;BME280;42299;35.160;26.100;2023-03-23T06:11:06;100876.78;;;16.57;100.00
56402;BME280;42299;35.160;26.100;2023-03-23T06:12:38;100885.66;;;16.59;100.00
56402;BME280;42299;35.160;26.100;2023-03-23T06:14:15;100892.78;;;16.58;100.00
56402;BME280;42299;35.160;26.100;2023-03-23T06:15:38;100889.22;;;16.59;100.00
56402;BME280;42299;35.160;26.100;2023-03-23T06:17:24;100898.16;;;16.60;100.00
56402;BME280;42299;35.160;26.100;2023-03-23T06:18:48;100900.78;;;16.61;100.00
56402;BME280;42299;35.160;26.100;2023-03-23T06:20:15;100899.00;;;16.63;100.00
56402;BME280;42299;35.160;26.100;2023-03-23T06:21:38;100892.78;;;16.64;100.00
56402;BME280;42299;35.160;26.100;2023-03-23T06:23:24;100891.00;;;16.65;100.00
56402;BME280;42299;35.160;26.100;2023-03-23T06:24:47;100892.78;;;16.64;100.00
56402;BME280;42299;35.160;26.100;2023-03-23T06:26:14;100892.72;;;16.67;100.00
56402;BME280;42299;35.160;26.100;2023-03-23T06:27:42;100898.94;;;16.69;100.00
56402;BME280;42299;35.160;26.100;2023-03-23T06:29:05;100897.16;;;16.71;100.00
56402;BME280;42299;35.160;26.100;2023-03-23T06:30:34;100887.38;;;16.72;100.00
56402;BME280;42299;35.160;26.100;2023-03-23T06:31:59;100890.91;;;16.76;100.00
56402;BME280;42299;35.160;26.100;2023-03-23T06:33:24;100896.22;;;16.77;100.00
56402;BME280;42299;35.160;26.100;2023-03-23T06:35:03;100898.94;;;16.72;100.00
56402;BME280;42299;35.160;26.100;2023-03-23T06:36:44;100902.50;;;16.70;100.00
56402;BME280;42299;35.160;26.100;2023-03-23T06:38:12;100898.94;;;16.69;100.00
56402;BME280;42299;35.160;26.100;2023-03-23T06:39:47;100896.28;;;16.71;100.00
56402;BME280;42299;35.160;26.100;2023-03-23T06:41:33;100895.34;;;16.77;100.00
56402;BME280;42299;35.160;26.100;2023-03-23T06:42:58;100899.75;;;16.81;100.00
56402;BME280;42299;35.160;26.100;2023-03-23T06:44:20;100903.28;;;16.81;100.00
56402;BME280;42299;35.160;26.100;2023-03-23T06:45:43;100896.13;;;16.89;100.00
56402;BME280;42299;35.160;26.100;2023-03-23T06:47:23;100904.06;;;16.94;100.00
56402;BME280;42299;35.160;26.100;2023-03-23T06:48:46;100898.72;;;16.98;100.00
56402;BME280;42299;35.160;26.100;2023-03-23T06:50:12;100908.47;;;17.04;100.00
56402;BME280;42299;35.160;26.100;2023-03-23T06:51:34;100909.34;;;17.06;100.00
56402;BME280;42299;35.160;26.100;2023-03-23T06:52:57;100904.84;;;17.09;100.00
56402;BME280;42299;35.160;26.100;2023-03-23T06:54:19;100903.91;;;17.15;100.00
56402;BME280;42299;35.160;26.100;2023-03-23T06:55:42;100912.78;;;17.19;100.00
56402;BME280;42299;35.160;26.100;2023-03-23T06:57:07;100908.28;;;17.22;100.00
56402;BME280;42299;35.160;26.100;2023-03-23T06:58:31;100910.06;;;17.23;100.00
56402;BME280;42299;35.160;26.100;2023-03-23T06:59:52;100910.06;;;17.25;100.00
56402;BME280;42299;35.160;26.100;2023-03-23T07:01:18;100907.34;;;17.28;100.00
56402;BME280;42299;35.160;26.100;2023-03-23T07:02:49;100905.53;;;17.31;100.00
56402;BME280;42299;35.160;26.100;2023-03-23T07:04:11;100909.94;;;17.35;100.00
56402;BME280;42299;35.160;26.100;2023-03-23T07:05:46;100902.81;;;17.36;100.00
56402;BME280;42299;35.160;26.100;2023-03-23T07:07:11;100916.09;;;17.40;100.00
56402;BME280;42299;35.160;26.100;2023-03-23T07:08:43;100904.53;;;17.43;100.00
56402;BME280;42299;35.160;26.100;2023-03-23T07:10:10;100911.59;;;17.47;100.00
56402;BME280;42299;35.160;26.100;2023-03-23T07:11:33;100912.47;;;17.47;100.00
56402;BME280;42299;35.160;26.100;2023-03-23T07:13:02;100910.72;;;17.46;100.00
56402;BME280;42299;35.160;26.100;2023-03-23T07:14:36;100910.69;;;17.51;100.00
56402;BME280;42299;35.160;26.100;2023-03-23T07:15:59;100916.84;;;17.54;100.00
56402;BME280;42299;35.160;26.100;2023-03-23T07:17:22;100916.84;;;17.56;100.00
56402;BME280;42299;35.160;26.100;2023-03-23T07:19:05;100920.41;;;17.55;100.00
56402;BME280;42299;35.160;26.100;2023-03-23T07:20:28;100920.41;;;17.53;100.00
56402;BME280;42299;35.160;26.100;2023-03-23T07:21:50;100919.59;;;17.51;100.00
56402;BME280;42299;35.160;26.100;2023-03-23T07:23:15;100928.50;;;17.49;100.00
56402;BME280;42299;35.160;26.100;2023-03-23T07:24:43;100917.88;;;17.41;100.00
56402;BME280;42299;35.160;26.100;2023-03-23T07:26:14;100925.06;;;17.38;100.00
56402;BME280;42299;35.160;26.100;2023-03-23T07:27:45;100922.41;;;17.35;100.00